createdAt,value
2022-09-15T00:00:43.594Z,40.33
2022-09-15T00:03:10.183Z,40.67
2022-09-15T00:05:37.079Z,35.70
2022-09-15T00:08:03.658Z,35.87
2022-09-15T00:10:30.392Z,37.60
2022-09-15T00:12:57.143Z,38.87
2022-09-15T00:15:23.792Z,34.73
2022-09-15T00:17:51.486Z,36.10
2022-09-15T00:20:19.282Z,38.40
2022-09-15T00:22:46.255Z,38.10
2022-09-15T00:25:13.391Z,39.87
2022-09-15T00:27:40.040Z,40.07
2022-09-15T00:30:07.565Z,41.23
2022-09-15T00:32:34.196Z,42.27
2022-09-15T00:35:00.696Z,46.13
2022-09-15T00:37:27.248Z,48.13
2022-09-15T00:39:53.815Z,49.80
2022-09-15T00:42:21.332Z,55.07
2022-09-15T00:44:53.019Z,55.00
2022-09-15T00:47:21.062Z,53.80
2022-09-15T00:49:49.194Z,55.30
2022-09-15T00:52:20.096Z,54.90
2022-09-15T00:54:46.736Z,52.70
2022-09-15T00:57:16.739Z,53.93
2022-09-15T00:59:44.341Z,53.00
2022-09-15T01:02:17.139Z,63.33
2022-09-15T01:04:43.835Z,54.07
2022-09-15T01:07:12.136Z,53.60
2022-09-15T01:09:41.634Z,55.67
2022-09-15T01:12:08.199Z,59.93
2022-09-15T01:14:34.743Z,54.90
2022-09-15T01:17:20.570Z,60.80
2022-09-15T01:20:06.146Z,59.60
2022-09-15T01:22:39.102Z,66.40
2022-09-15T01:25:26.382Z,67.90
2022-09-15T01:28:02.078Z,66.17
2022-09-15T01:30:31.705Z,73.33
2022-09-15T01:33:04.368Z,69.70
2022-09-15T01:35:40.125Z,63.07
2022-09-15T01:38:14.554Z,68.80
2022-09-15T01:40:44.865Z,63.33
2022-09-15T01:43:11.453Z,60.50
2022-09-15T01:45:41.237Z,67.60
2022-09-15T01:48:08.740Z,65.63
2022-09-15T01:50:38.857Z,66.73
2022-09-15T01:53:08.866Z,72.43
2022-09-15T01:55:38.807Z,69.73
2022-09-15T01:58:05.446Z,71.40
2022-09-15T02:00:33.496Z,79.10
2022-09-15T02:03:04.128Z,82.70
2022-09-15T02:05:42.209Z,78.97
2022-09-15T02:08:15.611Z,77.80
2022-09-15T02:10:44.650Z,72.50
2022-09-15T02:13:16.947Z,75.90
2022-09-15T02:15:50.475Z,74.73
2022-09-15T02:18:25.772Z,81.70
2022-09-15T02:20:58.474Z,77.93
2022-09-15T02:23:32.829Z,75.87
2022-09-15T02:26:04.969Z,75.73
2022-09-15T02:28:33.129Z,78.70
2022-09-15T02:31:01.187Z,74.70
2022-09-15T02:33:29.887Z,79.93
2022-09-15T02:35:56.487Z,77.77
2022-09-15T02:38:23.673Z,76.40
2022-09-15T02:40:50.675Z,78.03
2022-09-15T02:43:17.809Z,74.87
2022-09-15T02:45:44.460Z,72.43
2022-09-15T02:48:12.134Z,74.23
2022-09-15T02:50:38.973Z,66.70
2022-09-15T02:53:05.619Z,70.50
2022-09-15T02:55:32.196Z,69.27
2022-09-15T02:57:58.801Z,67.83
2022-09-15T03:00:25.939Z,64.10
2022-09-15T03:02:53.560Z,65.13
2022-09-15T03:05:30.334Z,66.57
2022-09-15T03:07:57.166Z,67.50
2022-09-15T03:10:24.387Z,68.10
2022-09-15T03:12:52.585Z,63.47
2022-09-15T03:15:22.621Z,62.80
2022-09-15T03:17:49.514Z,64.43
2022-09-15T03:20:17.459Z,62.23
2022-09-15T03:22:44.067Z,67.70
2022-09-15T03:25:11.210Z,62.37
2022-09-15T03:27:37.881Z,61.83
2022-09-15T03:30:05.167Z,58.10
2022-09-15T03:32:31.704Z,64.63
2022-09-15T03:34:58.772Z,59.10
2022-09-15T03:37:25.636Z,61.60
2022-09-15T03:39:52.162Z,61.17
2022-09-15T03:42:19.600Z,62.10
2022-09-15T03:44:46.152Z,64.47
2022-09-15T03:47:12.628Z,60.30
2022-09-15T03:49:39.127Z,63.30
2022-09-15T03:52:05.641Z,65.40
2022-09-15T03:54:32.177Z,65.80
2022-09-15T03:56:58.872Z,64.17
2022-09-15T03:59:25.440Z,63.63
2022-09-15T04:01:52.051Z,62.73
2022-09-15T04:04:18.624Z,58.70
2022-09-15T04:06:45.316Z,69.47
2022-09-15T04:09:12.155Z,61.47
2022-09-15T04:11:39.477Z,64.90
2022-09-15T04:14:06.177Z,58.20
2022-09-15T04:16:32.838Z,55.30
2022-09-15T04:18:59.844Z,54.07
2022-09-15T04:21:26.714Z,54.83
2022-09-15T04:23:53.311Z,53.07
2022-09-15T04:26:27.953Z,53.27
2022-09-15T04:28:54.527Z,53.93
2022-09-15T04:31:21.117Z,48.57
2022-09-15T04:33:47.759Z,48.77
2022-09-15T04:36:15.541Z,47.33
2022-09-15T04:38:42.593Z,49.90
2022-09-15T04:41:09.813Z,46.40
2022-09-15T04:43:36.422Z,45.83
2022-09-15T04:46:03.065Z,42.83
2022-09-15T04:48:30.429Z,44.17
2022-09-15T04:51:06.947Z,45.00
2022-09-15T04:53:33.764Z,45.73
2022-09-15T04:56:03.418Z,44.20
2022-09-15T04:58:30.105Z,43.70
2022-09-15T05:00:56.607Z,45.43
2022-09-15T05:03:23.197Z,46.47
2022-09-15T05:05:49.722Z,45.27
2022-09-15T05:08:16.550Z,42.80
2022-09-15T05:10:43.089Z,44.17
2022-09-15T05:13:09.656Z,42.60
2022-09-15T05:15:36.165Z,41.47
2022-09-15T05:18:02.837Z,43.87
2022-09-15T05:20:29.796Z,45.17
2022-09-15T05:22:56.371Z,42.37
2022-09-15T05:25:23.009Z,41.23
2022-09-15T05:27:49.635Z,43.17
2022-09-15T05:30:36.876Z,45.10
2022-09-15T05:33:02.903Z,41.40
2022-09-15T05:35:29.458Z,47.57
2022-09-15T05:37:56.010Z,47.07
2022-09-15T05:40:22.723Z,43.30
2022-09-15T05:42:49.299Z,44.83
2022-09-15T05:45:15.984Z,44.00
2022-09-15T05:47:42.492Z,43.67
2022-09-15T05:50:09.307Z,44.13
2022-09-15T05:52:35.922Z,44.53
2022-09-15T05:55:02.511Z,42.67
2022-09-15T05:57:29.855Z,45.70
2022-09-15T05:59:56.433Z,40.90
2022-09-15T06:02:23.105Z,40.17
2022-09-15T06:04:49.732Z,43.80
2022-09-15T06:07:16.575Z,43.87
2022-09-15T06:09:43.402Z,40.10
2022-09-15T06:12:10.063Z,42.03
2022-09-15T06:14:36.630Z,41.27
2022-09-15T06:17:03.174Z,41.40
2022-09-15T06:19:29.665Z,40.33
2022-09-15T06:21:56.374Z,44.00
2022-09-15T06:24:22.964Z,41.10
2022-09-15T06:26:49.604Z,44.93
2022-09-15T06:29:16.166Z,44.60
2022-09-15T06:31:42.772Z,42.67
2022-09-15T06:34:11.204Z,40.10
2022-09-15T06:36:38.954Z,41.77
2022-09-15T06:39:05.616Z,44.97
2022-09-15T06:41:52.516Z,42.00
2022-09-15T06:44:19.421Z,41.13
2022-09-15T06:46:46.361Z,41.33
2022-09-15T06:49:12.926Z,37.93
2022-09-15T06:51:39.733Z,42.23
2022-09-15T06:54:06.336Z,38.40
2022-09-15T06:56:37.613Z,40.50
2022-09-15T06:59:04.541Z,40.30
2022-09-15T07:01:32.047Z,39.90
2022-09-15T07:03:59.801Z,41.17
2022-09-15T07:06:30.291Z,41.03
2022-09-15T07:08:58.455Z,39.10
2022-09-15T07:11:25.477Z,41.33
2022-09-15T07:13:52.245Z,39.17
2022-09-15T07:16:19.387Z,40.90
2022-09-15T07:18:46.613Z,38.97
2022-09-15T07:21:14.726Z,42.33
2022-09-15T07:23:41.705Z,39.17
2022-09-15T07:26:12.594Z,40.83
2022-09-15T07:28:39.961Z,41.03
2022-09-15T07:31:07.216Z,42.80
2022-09-15T07:33:34.289Z,42.17
2022-09-15T07:36:02.465Z,41.10
2022-09-15T07:38:29.098Z,39.47
2022-09-15T07:41:01.921Z,41.63
2022-09-15T07:43:28.416Z,40.03
2022-09-15T07:45:57.064Z,38.77
2022-09-15T07:48:26.436Z,37.87
2022-09-15T07:50:53.367Z,39.73
2022-09-15T07:53:20.029Z,38.53
2022-09-15T07:55:51.414Z,38.27
2022-09-15T07:58:19.070Z,37.20
2022-09-15T08:00:47.450Z,38.40
2022-09-15T08:03:14.529Z,37.80
2022-09-15T08:05:45.277Z,37.57
2022-09-15T08:08:12.293Z,33.23
2022-09-15T08:10:42.582Z,32.77
2022-09-15T08:13:09.146Z,33.60
2022-09-15T08:15:38.805Z,37.40
2022-09-15T08:18:06.083Z,34.20
2022-09-15T08:20:33.220Z,33.30
2022-09-15T08:22:59.846Z,35.90
2022-09-15T08:25:26.519Z,35.87
2022-09-15T08:27:54.169Z,36.30
2022-09-15T08:30:21.288Z,34.83
2022-09-15T08:32:48.237Z,35.70
2022-09-15T08:35:16.017Z,36.97
2022-09-15T08:37:42.690Z,35.57
2022-09-15T08:40:35.690Z,34.57
2022-09-15T08:43:06.257Z,33.17
2022-09-15T08:45:37.599Z,32.77
2022-09-15T08:48:04.874Z,32.40
2022-09-15T08:50:42.566Z,30.97
2022-09-15T08:53:14.124Z,26.37
2022-09-15T08:55:46.683Z,24.97
2022-09-15T08:58:34.274Z,25.20
2022-09-15T09:01:04.760Z,24.70
2022-09-15T09:03:43.657Z,23.67
2022-09-15T09:06:29.050Z,22.90
2022-09-15T09:09:04.838Z,20.00
2022-09-15T09:11:31.391Z,20.67
2022-09-15T09:14:13.518Z,19.70
2022-09-15T09:16:52.495Z,20.73
2022-09-15T09:19:38.139Z,21.33
2022-09-15T09:22:13.797Z,20.23
2022-09-15T09:24:43.045Z,20.57
2022-09-15T09:27:18.277Z,19.10
2022-09-15T09:29:49.529Z,17.47
2022-09-15T09:32:21.636Z,16.43
2022-09-15T09:34:54.639Z,14.90
2022-09-15T09:37:21.216Z,17.37
2022-09-15T09:39:48.882Z,18.40
2022-09-15T09:42:18.294Z,14.43
2022-09-15T09:44:45.860Z,15.67
2022-09-15T09:47:13.255Z,15.40
2022-09-15T09:49:47.619Z,13.40
2022-09-15T09:52:20.032Z,12.40
2022-09-15T09:54:59.477Z,11.60
2022-09-15T09:57:29.216Z,12.47
2022-09-15T09:59:55.874Z,11.67
2022-09-15T10:02:24.671Z,10.23
2022-09-15T10:05:05.601Z,11.73
2022-09-15T10:07:32.814Z,10.63
2022-09-15T10:10:01.625Z,11.10
2022-09-15T10:12:28.158Z,12.17
2022-09-15T10:14:55.939Z,12.80
2022-09-15T10:17:45.806Z,9.83
2022-09-15T10:20:24.681Z,10.10
2022-09-15T10:22:51.624Z,9.30
2022-09-15T10:25:21.221Z,9.03
2022-09-15T10:28:03.244Z,8.80
2022-09-15T10:30:29.866Z,7.60
2022-09-15T10:32:57.955Z,5.73
2022-09-15T10:35:24.664Z,5.17
2022-09-15T10:37:57.316Z,4.77
2022-09-15T10:40:23.917Z,6.23
2022-09-15T10:42:51.848Z,6.80
2022-09-15T10:45:30.710Z,6.00
2022-09-15T10:48:23.830Z,4.80
2022-09-15T10:51:02.628Z,4.87
2022-09-15T10:53:35.501Z,3.43
2022-09-15T10:56:21.500Z,3.47
2022-09-15T10:59:06.868Z,3.70
2022-09-15T11:01:48.284Z,2.70
2022-09-15T11:04:17.819Z,2.70
2022-09-15T11:06:56.452Z,2.07
2022-09-15T11:09:26.071Z,3.20
2022-09-15T11:12:08.018Z,4.30
2022-09-15T11:14:37.667Z,3.93
2022-09-15T11:17:07.318Z,4.03
2022-09-15T11:20:03.716Z,5.17
2022-09-15T11:22:35.486Z,4.83
2022-09-15T11:25:22.168Z,4.50
2022-09-15T11:27:55.760Z,3.03
2022-09-15T11:30:26.834Z,3.03
2022-09-15T11:33:15.211Z,2.50
2022-09-15T11:35:46.719Z,3.27
2022-09-15T11:38:13.286Z,2.70
2022-09-15T11:40:44.811Z,2.33
2022-09-15T11:43:17.661Z,2.07
2022-09-15T11:45:46.835Z,2.27
2022-09-15T11:48:16.019Z,3.70
2022-09-15T11:50:45.198Z,3.50
2022-09-15T11:53:16.749Z,2.73
2022-09-15T11:55:53.108Z,2.10
2022-09-15T11:58:33.989Z,2.73
2022-09-15T12:01:08.832Z,2.23
2022-09-15T12:03:54.218Z,2.47
2022-09-15T12:06:27.033Z,2.40
2022-09-15T12:08:56.788Z,2.43
2022-09-15T12:11:26.077Z,2.30
2022-09-15T12:13:53.759Z,2.07
2022-09-15T12:16:21.353Z,2.20
2022-09-15T12:18:53.571Z,1.70
2022-09-15T12:21:39.334Z,2.30
2022-09-15T12:24:24.794Z,2.67
2022-09-15T12:26:51.660Z,2.10
2022-09-15T12:29:21.354Z,2.60
2022-09-15T12:31:47.999Z,1.90
2022-09-15T12:34:35.237Z,1.60
2022-09-15T12:37:14.935Z,1.80
2022-09-15T12:39:42.322Z,2.67
2022-09-15T12:42:23.261Z,2.30
2022-09-15T12:45:04.356Z,1.97
2022-09-15T12:47:31.851Z,2.10
2022-09-15T12:50:01.715Z,2.33
2022-09-15T12:52:28.733Z,2.23
2022-09-15T12:54:57.277Z,2.43
2022-09-15T12:57:26.760Z,2.00
2022-09-15T13:00:12.215Z,2.40
2022-09-15T13:02:43.862Z,2.00
2022-09-15T13:05:11.789Z,2.07
2022-09-15T13:07:55.534Z,2.40
2022-09-15T13:10:35.948Z,2.60
2022-09-15T13:13:16.150Z,1.67
2022-09-15T13:15:44.359Z,2.07
2022-09-15T13:18:12.405Z,3.07
2022-09-15T13:20:41.220Z,3.13
2022-09-15T13:23:09.308Z,2.30
2022-09-15T13:25:36.305Z,2.37
2022-09-15T13:28:03.728Z,1.93
2022-09-15T13:30:36.392Z,2.20
2022-09-15T13:33:15.850Z,1.70
2022-09-15T13:35:42.539Z,2.20
2022-09-15T13:38:31.595Z,3.00
2022-09-15T13:41:18.096Z,4.10
2022-09-15T13:44:04.619Z,3.77
2022-09-15T13:46:50.111Z,4.23
2022-09-15T13:49:27.865Z,4.00
2022-09-15T13:52:01.026Z,4.80
2022-09-15T13:54:28.171Z,5.00
2022-09-15T13:56:59.182Z,5.53
2022-09-15T13:59:30.271Z,6.57
2022-09-15T14:01:58.541Z,6.30
2022-09-15T14:04:28.419Z,5.17
2022-09-15T14:07:00.053Z,6.00
2022-09-15T14:09:29.047Z,6.40
2022-09-15T14:11:59.007Z,4.60
2022-09-15T14:14:40.935Z,4.63
2022-09-15T14:17:36.929Z,4.27
2022-09-15T14:20:07.548Z,5.00
2022-09-15T14:22:34.383Z,3.20
2022-09-15T14:25:16.549Z,4.10
2022-09-15T14:27:44.493Z,3.10
2022-09-15T14:30:19.676Z,3.20
2022-09-15T14:32:47.113Z,3.50
2022-09-15T14:35:19.683Z,3.20
2022-09-15T14:37:50.861Z,3.30
2022-09-15T14:40:20.009Z,3.00
2022-09-15T14:42:46.772Z,2.70
2022-09-15T14:48:07.174Z,2.27
2022-09-15T14:50:34.020Z,3.17
2022-09-15T14:53:05.169Z,2.67
2022-09-15T14:55:46.979Z,2.73
2022-09-15T14:58:21.296Z,2.10
2022-09-15T15:01:02.381Z,1.70
2022-09-15T15:03:41.355Z,2.10
2022-09-15T15:06:34.059Z,1.80
2022-09-15T15:09:03.365Z,1.20
2022-09-15T15:11:31.729Z,1.70
2022-09-15T15:13:58.481Z,1.53
2022-09-15T15:16:26.609Z,1.87
2022-09-15T15:18:53.709Z,1.70
2022-09-15T15:21:29.680Z,1.60
2022-09-15T15:23:56.528Z,1.60
2022-09-15T15:26:25.046Z,2.07
2022-09-15T15:28:53.003Z,1.23
2022-09-15T15:31:25.061Z,2.03
2022-09-15T15:33:53.277Z,1.87
2022-09-15T15:36:21.758Z,1.47
2022-09-15T15:38:56.542Z,1.47
2022-09-15T15:41:27.626Z,1.57
2022-09-15T15:43:55.298Z,1.17
2022-09-15T15:46:41.028Z,1.30
2022-09-15T15:49:11.028Z,1.90
2022-09-15T15:51:37.721Z,1.40
2022-09-15T15:54:05.895Z,1.37
2022-09-15T15:56:37.139Z,1.43
2022-09-15T15:59:04.891Z,1.40
2022-09-15T16:01:31.950Z,1.40
2022-09-15T16:03:58.567Z,1.50
2022-09-15T16:06:25.242Z,1.50
2022-09-15T16:08:52.640Z,1.40
2022-09-15T16:11:20.953Z,1.50
2022-09-15T16:13:48.387Z,1.90
2022-09-15T16:16:16.630Z,1.50
2022-09-15T16:18:43.519Z,1.20
2022-09-15T16:21:20.549Z,1.70
2022-09-15T16:23:48.169Z,2.60
2022-09-15T16:26:16.758Z,1.63
2022-09-15T16:28:43.384Z,1.80
2022-09-15T16:31:12.312Z,2.40
2022-09-15T16:33:39.369Z,1.70
2022-09-15T16:36:09.127Z,1.90
2022-09-15T16:38:36.121Z,2.13
2022-09-15T16:41:03.577Z,1.70
2022-09-15T16:43:30.707Z,1.73
2022-09-15T16:45:57.460Z,2.00
2022-09-15T16:48:24.337Z,2.17
2022-09-15T16:53:39.520Z,1.77
2022-09-15T16:56:07.088Z,1.57
2022-09-15T16:58:33.979Z,1.63
2022-09-15T17:01:00.816Z,2.40
2022-09-15T17:03:27.895Z,2.47
2022-09-15T17:05:55.662Z,1.80
2022-09-15T17:08:23.533Z,1.70
2022-09-15T17:10:50.625Z,3.40
2022-09-15T17:13:18.764Z,1.80
2022-09-15T17:15:45.902Z,1.80
2022-09-15T17:18:16.544Z,2.10
2022-09-15T17:20:44.263Z,2.37
2022-09-15T17:23:23.464Z,2.73
2022-09-15T17:25:52.792Z,2.83
2022-09-15T17:28:21.199Z,2.67
2022-09-15T17:30:48.953Z,3.30
2022-09-15T17:33:16.146Z,3.43
2022-09-15T17:35:43.201Z,2.87
2022-09-15T17:38:12.196Z,3.40
2022-09-15T17:40:39.181Z,3.53
2022-09-15T17:43:06.931Z,2.40
2022-09-15T17:45:35.434Z,2.17
2022-09-15T17:48:04.613Z,2.03
2022-09-15T17:50:33.194Z,1.60
2022-09-15T17:53:00.128Z,1.53
2022-09-15T17:55:31.550Z,1.23
2022-09-15T17:57:59.394Z,2.67
2022-09-15T18:00:27.127Z,3.37
2022-09-15T18:02:58.325Z,3.83
2022-09-15T18:05:27.093Z,3.43
2022-09-15T18:07:54.671Z,4.00
2022-09-15T18:10:22.564Z,3.50
2022-09-15T18:12:53.589Z,2.57
2022-09-15T18:15:23.849Z,1.80
2022-09-15T18:17:51.451Z,2.13
2022-09-15T18:20:21.783Z,2.30
2022-09-15T18:22:49.173Z,2.00
2022-09-15T18:25:19.197Z,2.33
2022-09-15T18:27:46.807Z,1.93
2022-09-15T18:30:13.958Z,2.00
2022-09-15T18:32:40.946Z,2.20
2022-09-15T18:35:09.324Z,1.50
2022-09-15T18:37:37.230Z,2.97
2022-09-15T18:40:07.149Z,1.50
2022-09-15T18:42:33.960Z,2.13
2022-09-15T18:45:01.077Z,1.90
2022-09-15T18:47:28.861Z,1.40
2022-09-15T18:49:55.813Z,2.67
2022-09-15T18:52:22.664Z,1.40
2022-09-15T18:54:49.457Z,1.23
2022-09-15T18:57:16.139Z,2.17
2022-09-15T18:59:42.746Z,1.80
2022-09-15T19:02:11.832Z,1.50
2022-09-15T19:04:40.720Z,2.00
2022-09-15T19:07:08.293Z,1.53
2022-09-15T19:09:35.563Z,2.50
2022-09-15T19:12:03.269Z,4.23
2022-09-15T19:14:30.599Z,2.10
2022-09-15T19:16:58.458Z,2.73
2022-09-15T19:19:25.410Z,2.30
2022-09-15T19:21:52.195Z,2.63
2022-09-15T19:24:20.008Z,2.33
2022-09-15T19:26:47.256Z,2.00
2022-09-15T19:29:14.107Z,2.40
2022-09-15T19:31:42.074Z,3.20
2022-09-15T19:34:09.443Z,2.30
2022-09-15T19:36:36.438Z,2.10
2022-09-15T19:39:03.724Z,2.00
2022-09-15T19:41:30.575Z,2.30
2022-09-15T19:43:57.560Z,2.87
2022-09-15T19:46:24.958Z,1.73
2022-09-15T19:48:52.047Z,2.07
2022-09-15T19:51:19.439Z,1.90
2022-09-15T19:53:47.572Z,1.80
2022-09-15T19:56:15.127Z,2.13
2022-09-15T19:58:41.906Z,2.33
2022-09-15T20:01:15.902Z,2.20
2022-09-15T20:03:43.852Z,2.83
2022-09-15T20:06:10.687Z,2.20
2022-09-15T20:08:38.214Z,3.17
2022-09-15T20:11:06.066Z,2.63
2022-09-15T20:13:32.890Z,2.13
2022-09-15T20:16:00.970Z,1.83
2022-09-15T20:18:28.358Z,2.30
2022-09-15T20:20:56.994Z,2.93
2022-09-15T20:23:23.645Z,1.70
2022-09-15T20:25:57.225Z,2.23
2022-09-15T20:28:24.373Z,3.03
2022-09-15T20:31:00.191Z,2.50
2022-09-15T20:33:26.953Z,1.80
2022-09-15T20:35:53.807Z,3.03
2022-09-15T20:38:20.778Z,2.80
2022-09-15T20:40:47.356Z,2.40
2022-09-15T20:43:13.943Z,3.60
2022-09-15T20:45:40.478Z,3.17
2022-09-15T20:48:07.707Z,2.20
2022-09-15T20:50:34.982Z,3.43
2022-09-15T20:53:01.609Z,2.90
2022-09-15T20:55:28.590Z,3.10
2022-09-15T20:57:55.161Z,2.30
2022-09-15T21:00:21.706Z,2.70
2022-09-15T21:02:50.983Z,3.27
2022-09-15T21:05:17.575Z,2.47
2022-09-15T21:07:44.169Z,3.13
2022-09-15T21:10:10.759Z,2.43
2022-09-15T21:12:37.314Z,2.90
2022-09-15T21:15:04.133Z,3.00
2022-09-15T21:17:30.654Z,2.53
2022-09-15T21:19:57.193Z,2.03
2022-09-15T21:22:23.748Z,2.53
2022-09-15T21:24:50.301Z,2.00
2022-09-15T21:27:30.028Z,2.10
2022-09-15T21:29:56.865Z,2.50
2022-09-15T21:32:24.453Z,1.73
2022-09-15T21:34:51.189Z,2.03
2022-09-15T21:37:18.969Z,3.20
2022-09-15T21:39:45.457Z,2.23
2022-09-15T21:42:13.029Z,2.77
2022-09-15T21:44:39.601Z,2.70
2022-09-15T21:47:06.163Z,3.33
2022-09-15T21:49:33.315Z,2.17
2022-09-15T21:51:59.909Z,2.73
2022-09-15T21:54:26.435Z,2.10
2022-09-15T21:56:53.046Z,3.00
2022-09-15T21:59:19.604Z,2.63
2022-09-15T22:01:46.200Z,3.03
2022-09-15T22:04:12.782Z,3.17
2022-09-15T22:06:40.661Z,3.13
2022-09-15T22:09:13.051Z,3.30
2022-09-15T22:11:41.178Z,2.80
2022-09-15T22:14:11.560Z,2.70
2022-09-15T22:16:39.137Z,3.37
2022-09-15T22:19:07.016Z,3.27
2022-09-15T22:21:36.681Z,3.97
2022-09-15T22:24:04.454Z,2.40
2022-09-15T22:26:31.963Z,3.43
2022-09-15T22:28:59.210Z,2.50
2022-09-15T22:31:26.852Z,3.27
2022-09-15T22:33:54.291Z,2.97
2022-09-15T22:36:26.448Z,2.20
2022-09-15T22:38:55.450Z,2.87
2022-09-15T22:41:22.167Z,2.60
2022-09-15T22:43:49.851Z,3.17
2022-09-15T22:46:17.519Z,3.23
2022-09-15T22:48:44.391Z,2.57
2022-09-15T22:51:12.162Z,3.10
2022-09-15T22:53:39.085Z,2.00
2022-09-15T22:56:07.047Z,3.10
2022-09-15T22:58:34.542Z,2.13
2022-09-15T23:01:05.239Z,3.60
2022-09-15T23:03:32.005Z,2.70
2022-09-15T23:05:59.244Z,2.17
2022-09-15T23:08:26.153Z,3.40
2022-09-15T23:10:52.725Z,2.00
2022-09-15T23:13:19.341Z,2.23
2022-09-15T23:15:48.635Z,2.30
2022-09-15T23:18:15.193Z,2.90
2022-09-15T23:20:42.504Z,2.60
2022-09-15T23:23:09.098Z,2.60
2022-09-15T23:25:36.778Z,2.10
2022-09-15T23:28:03.351Z,1.80
2022-09-15T23:30:29.921Z,2.80
2022-09-15T23:32:56.566Z,2.37
2022-09-15T23:35:23.170Z,2.30
2022-09-15T23:37:49.779Z,2.60
2022-09-15T23:40:16.469Z,1.90
2022-09-15T23:42:43.101Z,2.70
2022-09-15T23:45:09.831Z,2.87
2022-09-15T23:47:36.390Z,2.93
2022-09-15T23:50:03.016Z,2.60
2022-09-15T23:52:29.561Z,2.47
2022-09-15T23:54:56.123Z,2.27
2022-09-15T23:57:22.705Z,3.60
2022-09-15T23:59:49.288Z,3.23
